KR-0397 weather

Dongwon Royal Duke Vista Apartments Heliports
Busan, Busan Gwang'yeogsi, South Korea

Public forecast

Using degrees Celsius for public forecast. Weather courtesy of forecast.io.

Closest aviation weather report (METAR) to Dongwon Royal Duke Vista Apartments Heliports

Closest report is Gimhae International Airport, 6.3 nm (11.6 km) WNW. Retrieved 2020/07/08 06:00 UTC (53 minutes ago):

RKPK 080600Z 21011KT 9000 FEW040 BKN200 27/20 Q1004

Closest aviation forecast (TAF) to Dongwon Royal Duke Vista Apartments Heliports

Closest forecast is Gimhae International Airport, 6.3 nm (11.6 km) WNW. Retrieved 2020/07/08 06:00 UTC (53 minutes ago):

TAF RKPK 080500Z 0806/0912 20008KT 9999 FEW030 SCT200 TN23/0821Z TX30/0906Z BECMG 0812/0813 15008KT 4800 BR BKN005 BECMG 0813/0814 1600 BKN002 BECMG 0819/0820 4800 BKN005 BECMG 0820/0821 15006KT 9999 NSW BKN015 BECMG 0900/0901 12006KT FEW030 SCT200